createdAt,value
2023-02-11T00:00:30.041Z,49.07
2023-02-11T00:02:33.169Z,49.51
2023-02-11T00:04:35.219Z,49.11
2023-02-11T00:06:36.898Z,49.27
2023-02-11T00:08:39.408Z,49.35
2023-02-11T00:10:40.948Z,49.11
2023-02-11T00:12:43.255Z,49.72
2023-02-11T00:14:44.923Z,49.21
2023-02-11T00:16:46.671Z,49.64
2023-02-11T00:18:49.003Z,49.31
2023-02-11T00:20:50.611Z,49.42
2023-02-11T00:22:53.088Z,49.76
2023-02-11T00:24:54.868Z,49.34
2023-02-11T00:26:56.427Z,49.21
2023-02-11T00:28:59.212Z,49.13
2023-02-11T00:31:03.330Z,49.68
2023-02-11T00:33:04.995Z,49.28
2023-02-11T00:35:07.542Z,49.75
2023-02-11T00:37:09.193Z,49.22
2023-02-11T00:39:11.671Z,49.81
2023-02-11T00:41:19.555Z,49.07
2023-02-11T00:43:21.207Z,49.53
2023-02-11T00:45:25.130Z,48.98
2023-02-11T00:47:26.660Z,49.12
2023-02-11T00:49:31.365Z,49.59
2023-02-11T00:51:33.205Z,49.67
2023-02-11T00:53:35.863Z,49.38
2023-02-11T00:55:37.449Z,49.65
2023-02-11T00:57:42.178Z,49.48
2023-02-11T00:59:43.924Z,49.61
2023-02-11T01:01:48.343Z,49.55
2023-02-11T01:03:50.435Z,49.55
2023-02-11T01:05:52.536Z,49.46
2023-02-11T01:07:54.271Z,49.12
2023-02-11T01:09:57.067Z,49.39
2023-02-11T01:11:58.839Z,49.62
2023-02-11T01:14:01.031Z,49.86
2023-02-11T01:16:04.044Z,50.27
2023-02-11T01:18:06.187Z,50.07
2023-02-11T01:20:13.880Z,50.01
2023-02-11T01:22:15.420Z,50.45
2023-02-11T01:24:16.994Z,50.04
2023-02-11T01:26:19.191Z,49.99
2023-02-11T01:28:24.813Z,50.33
2023-02-11T01:30:27.004Z,50.72
2023-02-11T01:32:28.776Z,50.44
2023-02-11T01:34:30.290Z,50.41
2023-02-11T01:36:31.888Z,50.13
2023-02-11T01:38:35.780Z,50.19
2023-02-11T01:40:37.840Z,50.29
2023-02-11T01:42:39.501Z,50.21
2023-02-11T01:44:41.027Z,50.80
2023-02-11T01:46:43.904Z,50.34
2023-02-11T01:48:50.450Z,50.20
2023-02-11T01:50:57.256Z,50.61
2023-02-11T01:53:18.987Z,50.63
2023-02-11T01:55:39.953Z,50.20
2023-02-11T01:57:45.148Z,50.31
2023-02-11T02:00:08.902Z,50.23
2023-02-11T02:02:21.402Z,50.26
2023-02-11T02:04:27.371Z,50.53
2023-02-11T02:06:40.911Z,50.71
2023-02-11T02:09:01.889Z,50.40
2023-02-11T02:11:04.897Z,50.38
2023-02-11T02:13:06.509Z,50.17
2023-02-11T02:15:18.086Z,50.30
2023-02-11T02:17:38.434Z,50.23
2023-02-11T02:20:16.535Z,50.53
2023-02-11T02:22:43.603Z,50.30
2023-02-11T02:25:23.026Z,50.78
2023-02-11T02:27:49.556Z,50.43
2023-02-11T02:30:09.197Z,50.62
2023-02-11T02:32:22.505Z,50.19
2023-02-11T02:34:36.572Z,50.24
2023-02-11T02:36:47.876Z,50.22
2023-02-11T02:38:55.154Z,50.63
2023-02-11T02:41:09.750Z,50.78
2023-02-11T02:43:12.715Z,50.75
2023-02-11T02:45:15.012Z,50.72
2023-02-11T02:47:25.235Z,50.62
2023-02-11T02:49:26.790Z,50.84
2023-02-11T02:52:06.245Z,50.61
2023-02-11T02:54:35.955Z,50.86
2023-02-11T02:56:49.696Z,50.68
2023-02-11T02:59:10.960Z,50.48
2023-02-11T03:01:34.408Z,51.05
2023-02-11T03:03:46.671Z,51.12
2023-02-11T03:06:03.450Z,50.95
2023-02-11T03:08:16.801Z,50.69
2023-02-11T03:10:35.653Z,51.16
2023-02-11T03:12:38.602Z,50.69
2023-02-11T03:14:41.956Z,50.79
2023-02-11T03:16:45.521Z,50.59
2023-02-11T03:18:59.320Z,50.74
2023-02-11T03:21:05.639Z,50.48
2023-02-11T03:23:30.821Z,50.96
2023-02-11T03:25:38.165Z,50.84
2023-02-11T03:27:47.112Z,50.97
2023-02-11T03:29:59.019Z,50.90
2023-02-11T03:32:16.260Z,51.24
2023-02-11T03:34:45.247Z,50.76
2023-02-11T03:36:56.108Z,51.00
2023-02-11T03:39:00.261Z,50.99
2023-02-11T03:41:05.280Z,51.32
2023-02-11T03:43:17.295Z,51.31
2023-02-11T03:45:26.540Z,50.90
2023-02-11T03:47:35.233Z,50.80
2023-02-11T03:49:39.798Z,51.40
2023-02-11T03:51:41.821Z,50.73
2023-02-11T03:53:46.433Z,50.64
2023-02-11T03:55:51.774Z,51.03
2023-02-11T03:57:53.758Z,50.78
2023-02-11T03:59:58.231Z,51.24
2023-02-11T04:01:59.799Z,50.80
2023-02-11T04:04:10.237Z,51.19
2023-02-11T04:06:11.906Z,50.76
2023-02-11T04:08:13.420Z,51.22
2023-02-11T04:10:15.301Z,50.88
2023-02-11T04:12:16.892Z,50.98
2023-02-11T04:14:20.885Z,50.88
2023-02-11T04:16:28.604Z,50.62
2023-02-11T04:18:30.158Z,50.97
2023-02-11T04:20:31.707Z,51.33
2023-02-11T04:22:33.248Z,50.88
2023-02-11T04:24:35.279Z,51.22
2023-02-11T04:26:36.894Z,51.44
2023-02-11T04:28:38.467Z,51.39
2023-02-11T04:30:41.242Z,51.24
2023-02-11T04:32:42.933Z,51.11
2023-02-11T04:34:44.643Z,51.30
2023-02-11T04:36:49.204Z,52.15
2023-02-11T04:38:50.789Z,52.24
2023-02-11T04:40:52.442Z,52.41
2023-02-11T04:42:54.142Z,52.42
2023-02-11T04:44:58.080Z,52.09
2023-02-11T04:46:59.774Z,52.39
2023-02-11T04:49:01.328Z,51.44
2023-02-11T04:51:03.194Z,51.66
2023-02-11T04:53:04.696Z,51.79
2023-02-11T04:55:06.793Z,51.54
2023-02-11T04:57:08.408Z,51.91
2023-02-11T04:59:09.987Z,51.59
2023-02-11T05:01:15.107Z,51.08
2023-02-11T05:03:17.333Z,51.31
2023-02-11T05:05:19.018Z,50.84
2023-02-11T05:07:20.674Z,51.29
2023-02-11T05:09:22.818Z,51.34
2023-02-11T05:11:26.062Z,51.06
2023-02-11T05:13:29.134Z,51.50
2023-02-11T05:15:37.019Z,51.44
2023-02-11T05:17:38.637Z,51.83
2023-02-11T05:19:41.688Z,51.40
2023-02-11T05:21:56.642Z,51.91
2023-02-11T05:24:06.634Z,51.64
2023-02-11T05:26:08.906Z,51.52
2023-02-11T05:28:10.447Z,51.75
2023-02-11T05:30:12.314Z,51.59
2023-02-11T05:32:14.707Z,52.21
2023-02-11T05:34:16.241Z,52.14
2023-02-11T05:36:17.994Z,52.29
2023-02-11T05:38:19.762Z,51.54
2023-02-11T05:40:21.415Z,51.98
2023-02-11T05:42:23.037Z,51.86
2023-02-11T05:44:25.703Z,51.76
2023-02-11T05:46:27.403Z,51.56
2023-02-11T05:48:28.932Z,51.71
2023-02-11T05:50:33.673Z,51.40
2023-02-11T05:52:35.169Z,51.15
2023-02-11T05:54:36.926Z,50.89
2023-02-11T05:56:38.605Z,50.94
2023-02-11T05:58:40.356Z,50.88
2023-02-11T06:00:42.111Z,50.93
2023-02-11T06:02:46.678Z,50.57
2023-02-11T06:04:48.201Z,51.06
2023-02-11T06:06:49.945Z,51.06
2023-02-11T06:08:51.541Z,50.97
2023-02-11T06:10:53.226Z,50.39
2023-02-11T06:12:54.889Z,50.45
2023-02-11T06:14:56.433Z,50.99
2023-02-11T06:16:58.100Z,50.61
2023-02-11T06:19:08.659Z,50.84
2023-02-11T06:21:16.664Z,50.83
2023-02-11T06:23:18.387Z,50.37
2023-02-11T06:25:20.052Z,50.14
2023-02-11T06:27:21.733Z,50.60
2023-02-11T06:29:23.416Z,50.22
2023-02-11T06:31:25.047Z,50.87
2023-02-11T06:33:26.613Z,50.39
2023-02-11T06:35:28.492Z,50.52
2023-02-11T06:37:30.254Z,50.47
2023-02-11T06:39:32.232Z,50.67
2023-02-11T06:41:36.050Z,50.67
2023-02-11T06:43:37.617Z,50.64
2023-02-11T06:45:41.165Z,50.40
2023-02-11T06:47:43.018Z,50.90
2023-02-11T06:49:51.788Z,50.67
2023-02-11T06:51:54.158Z,50.56
2023-02-11T06:53:55.826Z,50.52
2023-02-11T06:56:02.620Z,50.92
2023-02-11T06:58:04.323Z,50.77
2023-02-11T07:00:06.479Z,51.04
2023-02-11T07:02:10.153Z,50.94
2023-02-11T07:04:11.706Z,50.89
2023-02-11T07:06:16.589Z,50.35
2023-02-11T07:08:18.545Z,51.06
2023-02-11T07:10:20.426Z,50.75
2023-02-11T07:12:22.245Z,51.43
2023-02-11T07:14:34.310Z,50.94
2023-02-11T07:16:36.513Z,51.10
2023-02-11T07:18:38.449Z,51.19
2023-02-11T07:20:39.974Z,51.84
2023-02-11T07:22:41.624Z,51.50
2023-02-11T07:24:43.197Z,51.83
2023-02-11T07:26:44.932Z,51.42
2023-02-11T07:28:46.955Z,51.38
2023-02-11T07:30:48.643Z,52.21
2023-02-11T07:32:50.477Z,51.41
2023-02-11T07:34:52.158Z,52.30
2023-02-11T07:36:56.179Z,52.09
2023-02-11T07:38:58.631Z,52.06
2023-02-11T07:41:05.159Z,52.11
2023-02-11T07:43:06.874Z,52.62
2023-02-11T07:45:08.804Z,52.26
2023-02-11T07:47:13.842Z,51.92
2023-02-11T07:49:16.537Z,51.63
2023-02-11T07:51:26.964Z,51.75
2023-02-11T07:53:28.769Z,51.96
2023-02-11T07:55:30.407Z,52.73
2023-02-11T07:57:37.570Z,52.40
2023-02-11T07:59:39.091Z,52.14
2023-02-11T08:01:41.952Z,52.28
2023-02-11T08:03:43.710Z,52.14
2023-02-11T08:05:45.387Z,51.98
2023-02-11T08:07:47.258Z,52.29
2023-02-11T08:09:48.893Z,52.17
2023-02-11T08:11:50.548Z,52.10
2023-02-11T08:13:52.900Z,51.84
2023-02-11T08:15:57.822Z,52.61
2023-02-11T08:17:59.547Z,52.74
2023-02-11T08:20:04.781Z,52.14
2023-02-11T08:22:06.348Z,52.12
2023-02-11T08:24:09.080Z,53.25
2023-02-11T08:26:21.890Z,53.30
2023-02-11T08:28:23.867Z,52.38
2023-02-11T08:30:27.472Z,52.56
2023-02-11T08:32:29.107Z,52.95
2023-02-11T08:34:31.118Z,52.99
2023-02-11T08:36:36.667Z,53.07
2023-02-11T08:38:39.267Z,53.09
2023-02-11T08:40:42.096Z,53.44
2023-02-11T08:42:43.655Z,52.94
2023-02-11T08:44:47.533Z,52.89
2023-02-11T08:46:50.708Z,52.57
2023-02-11T08:48:54.966Z,53.07
2023-02-11T08:50:57.071Z,53.07
2023-02-11T08:53:01.224Z,52.53
2023-02-11T08:55:02.984Z,53.39
2023-02-11T08:57:05.509Z,53.15
2023-02-11T08:59:09.239Z,53.05
2023-02-11T09:01:22.322Z,52.77
2023-02-11T09:03:24.536Z,53.29
2023-02-11T09:05:27.570Z,53.02
2023-02-11T09:07:29.151Z,52.67
2023-02-11T09:09:30.750Z,52.80
2023-02-11T09:11:35.834Z,52.91
2023-02-11T09:13:37.837Z,52.79
2023-02-11T09:15:39.568Z,52.23
2023-02-11T09:17:41.088Z,52.24
2023-02-11T09:19:42.778Z,52.57
2023-02-11T09:21:44.461Z,52.56
2023-02-11T09:23:47.963Z,52.36
2023-02-11T09:25:49.749Z,52.28
2023-02-11T09:27:52.323Z,52.42
2023-02-11T09:29:54.060Z,52.24
2023-02-11T09:31:55.710Z,52.26
2023-02-11T09:34:02.005Z,52.04
2023-02-11T09:36:05.994Z,52.27
2023-02-11T09:38:07.612Z,51.95
2023-02-11T09:40:10.138Z,52.10
2023-02-11T09:42:41.055Z,52.38
2023-02-11T09:44:46.226Z,51.98
2023-02-11T09:46:54.838Z,52.08
2023-02-11T09:48:56.761Z,52.14
2023-02-11T09:51:03.389Z,52.01
2023-02-11T09:53:05.148Z,52.06
2023-02-11T09:55:18.809Z,52.35
2023-02-11T09:57:28.553Z,52.12
2023-02-11T09:59:30.761Z,52.23
2023-02-11T10:01:50.591Z,52.23
2023-02-11T10:04:13.787Z,52.19
2023-02-11T10:06:55.404Z,52.39
2023-02-11T10:09:08.587Z,52.18
2023-02-11T10:11:54.895Z,52.41
2023-02-11T10:14:05.586Z,52.29
2023-02-11T10:16:24.347Z,52.21
2023-02-11T10:18:53.830Z,52.16
2023-02-11T10:21:12.502Z,52.25
2023-02-11T10:23:22.412Z,52.14
2023-02-11T10:25:34.849Z,52.44
2023-02-11T10:27:36.308Z,52.15
2023-02-11T10:29:47.042Z,52.51
2023-02-11T10:31:53.380Z,52.08
2023-02-11T10:34:05.172Z,52.21
2023-02-11T10:36:14.377Z,52.28
2023-02-11T10:38:18.901Z,52.29
2023-02-11T10:40:25.926Z,52.28
2023-02-11T10:42:29.696Z,52.21
2023-02-11T10:44:41.592Z,52.20
2023-02-11T10:46:43.500Z,51.93
2023-02-11T10:48:58.765Z,52.28
2023-02-11T10:51:14.605Z,52.35
2023-02-11T10:53:20.672Z,51.93
2023-02-11T10:55:27.852Z,52.04
2023-02-11T10:57:38.843Z,52.24
2023-02-11T10:59:42.619Z,51.82
2023-02-11T11:01:53.380Z,52.01
2023-02-11T11:03:58.815Z,51.88
2023-02-11T11:06:09.204Z,52.43
2023-02-11T11:08:14.316Z,52.08
2023-02-11T11:10:34.430Z,52.01
2023-02-11T11:12:42.074Z,52.06
2023-02-11T11:14:54.850Z,51.93
2023-02-11T11:16:56.590Z,52.01
2023-02-11T11:19:07.727Z,52.02
2023-02-11T11:21:27.720Z,52.22
2023-02-11T11:23:30.895Z,51.93
2023-02-11T11:25:32.435Z,51.62
2023-02-11T11:27:34.189Z,51.89
2023-02-11T11:29:46.021Z,52.23
2023-02-11T11:32:03.137Z,51.92
2023-02-11T11:34:22.160Z,52.04
2023-02-11T11:36:34.225Z,51.88
2023-02-11T11:38:42.806Z,52.03
2023-02-11T11:40:44.558Z,51.77
2023-02-11T11:42:46.166Z,51.81
2023-02-11T11:45:19.635Z,51.96
2023-02-11T11:47:29.612Z,52.15
2023-02-11T11:49:38.782Z,52.04
2023-02-11T11:51:44.923Z,51.72
2023-02-11T11:53:57.131Z,51.78
2023-02-11T11:56:11.427Z,52.30
2023-02-11T11:58:22.640Z,51.96
2023-02-11T12:00:33.711Z,52.01
2023-02-11T12:03:17.163Z,52.03
2023-02-11T12:05:32.291Z,51.76
2023-02-11T12:08:26.683Z,52.17
2023-02-11T12:11:08.778Z,52.07
2023-02-11T12:13:23.304Z,51.88
2023-02-11T12:15:43.513Z,52.08
2023-02-11T12:17:56.501Z,51.96
2023-02-11T12:20:26.349Z,51.85
2023-02-11T12:23:15.064Z,51.84
2023-02-11T12:25:30.908Z,52.03
2023-02-11T12:27:57.230Z,52.04
2023-02-11T12:30:20.966Z,51.49
2023-02-11T12:32:47.116Z,51.77
2023-02-11T12:34:51.542Z,51.88
2023-02-11T12:37:02.563Z,51.64
2023-02-11T12:39:17.515Z,51.45
2023-02-11T12:42:08.683Z,51.78
2023-02-11T12:44:21.838Z,51.96
2023-02-11T12:46:29.166Z,51.81
2023-02-11T12:48:43.372Z,52.03
2023-02-11T12:51:14.597Z,51.96
2023-02-11T12:53:28.009Z,52.11
2023-02-11T12:55:42.576Z,51.97
2023-02-11T12:57:46.495Z,51.77
2023-02-11T13:00:04.972Z,51.87
2023-02-11T13:02:51.236Z,51.74
2023-02-11T13:04:57.324Z,51.93
2023-02-11T13:07:05.523Z,51.73
2023-02-11T13:09:18.817Z,51.93
2023-02-11T13:11:24.436Z,51.91
2023-02-11T13:13:31.819Z,51.62
2023-02-11T13:15:33.574Z,51.90
2023-02-11T13:17:43.931Z,51.80
2023-02-11T13:19:53.231Z,51.89
2023-02-11T13:22:21.133Z,52.25
2023-02-11T13:24:35.937Z,52.27
2023-02-11T13:26:49.955Z,52.20
2023-02-11T13:29:13.032Z,51.93
2023-02-11T13:31:16.686Z,52.08
2023-02-11T13:33:30.944Z,51.76
2023-02-11T13:35:33.518Z,52.10
2023-02-11T13:37:38.648Z,51.99
2023-02-11T13:39:40.397Z,51.96
2023-02-11T13:41:42.359Z,51.71
2023-02-11T13:43:44.402Z,51.53
2023-02-11T13:45:51.655Z,51.70
2023-02-11T13:48:03.958Z,52.00
2023-02-11T13:50:08.208Z,51.47
2023-02-11T13:52:39.847Z,51.49
2023-02-11T13:54:46.925Z,51.81
2023-02-11T13:57:20.048Z,51.96
2023-02-11T13:59:24.841Z,51.89
2023-02-11T14:02:44.057Z,51.86
2023-02-11T14:05:22.657Z,51.72
2023-02-11T14:07:51.901Z,51.64
2023-02-11T14:09:57.045Z,51.82
2023-02-11T14:12:33.038Z,52.24
2023-02-11T14:14:59.258Z,51.72
2023-02-11T14:17:09.505Z,51.91
2023-02-11T14:19:11.225Z,51.71
2023-02-11T14:21:23.178Z,51.74
2023-02-11T14:23:28.455Z,51.44
2023-02-11T14:25:30.237Z,51.33
2023-02-11T14:27:42.216Z,51.67
2023-02-11T14:29:58.754Z,51.77
2023-02-11T14:32:06.088Z,51.68
2023-02-11T14:34:45.035Z,51.66
2023-02-11T14:37:11.343Z,51.34
2023-02-11T14:39:18.791Z,51.81
2023-02-11T14:41:25.750Z,51.28
2023-02-11T14:43:40.537Z,51.75
2023-02-11T14:45:50.781Z,51.54
2023-02-11T14:48:03.582Z,51.60
2023-02-11T14:50:08.396Z,51.55
2023-02-11T14:52:24.388Z,51.79
2023-02-11T14:54:28.089Z,51.46
2023-02-11T14:56:36.795Z,51.37
2023-02-11T14:58:47.337Z,51.76
2023-02-11T15:00:57.116Z,51.46
2023-02-11T15:02:58.747Z,51.31
2023-02-11T15:05:17.454Z,51.66
2023-02-11T15:07:19.133Z,51.54
2023-02-11T15:09:42.432Z,51.37
2023-02-11T15:11:51.434Z,51.46
2023-02-11T15:13:55.434Z,51.28
2023-02-11T15:16:12.205Z,51.19
2023-02-11T15:18:26.845Z,51.52
2023-02-11T15:20:31.934Z,51.45
2023-02-11T15:22:36.844Z,51.55
2023-02-11T15:24:40.091Z,51.29
2023-02-11T15:26:41.744Z,51.26
2023-02-11T15:28:52.237Z,51.47
2023-02-11T15:31:03.327Z,51.38
2023-02-11T15:33:06.911Z,51.50
2023-02-11T15:35:11.804Z,51.22
2023-02-11T15:37:35.127Z,51.25
2023-02-11T15:39:41.998Z,51.26
2023-02-11T15:41:44.466Z,51.05
2023-02-11T15:43:54.243Z,51.04
2023-02-11T15:46:01.629Z,51.31
2023-02-11T15:48:21.736Z,51.07
2023-02-11T15:50:30.236Z,50.98
2023-02-11T15:52:32.231Z,51.17
2023-02-11T15:54:34.133Z,51.05
2023-02-11T15:56:43.262Z,51.08
2023-02-11T15:58:50.432Z,51.42
2023-02-11T16:00:59.865Z,51.07
2023-02-11T16:03:01.531Z,51.13
2023-02-11T16:05:09.660Z,51.29
2023-02-11T16:07:40.399Z,51.53
2023-02-11T16:09:43.005Z,51.53
2023-02-11T16:11:47.366Z,51.47
2023-02-11T16:13:49.246Z,51.21
2023-02-11T16:15:54.664Z,51.35
2023-02-11T16:17:56.807Z,51.26
2023-02-11T16:20:01.625Z,51.43
2023-02-11T16:22:10.384Z,51.63
2023-02-11T16:24:29.234Z,51.09
2023-02-11T16:26:57.750Z,51.29
2023-02-11T16:31:45.709Z,51.48
2023-02-11T16:34:35.742Z,51.29
2023-02-11T16:37:13.045Z,51.48
2023-02-11T16:40:03.150Z,51.36
2023-02-11T16:43:26.254Z,51.20
2023-02-11T16:45:31.165Z,51.39
2023-02-11T16:47:34.464Z,51.37
2023-02-11T16:49:38.305Z,51.10
2023-02-11T16:51:41.412Z,51.13
2023-02-11T16:53:43.174Z,51.37
2023-02-11T16:55:44.839Z,51.55
2023-02-11T16:57:46.542Z,51.17
2023-02-11T16:59:48.886Z,51.53
2023-02-11T17:01:52.980Z,51.21
2023-02-11T17:03:54.721Z,51.44
2023-02-11T17:05:56.273Z,51.55
2023-02-11T17:07:58.262Z,51.45
2023-02-11T17:10:00.434Z,51.53
2023-02-11T17:12:02.181Z,51.48
2023-02-11T17:14:03.788Z,51.27
2023-02-11T17:16:05.507Z,51.66
2023-02-11T17:18:06.962Z,51.51
2023-02-11T17:20:12.288Z,51.75
2023-02-11T17:22:13.903Z,51.27
2023-02-11T17:24:16.797Z,51.78
2023-02-11T17:26:21.375Z,51.66
2023-02-11T17:28:23.136Z,51.21
2023-02-11T17:30:27.847Z,51.67
2023-02-11T17:32:29.550Z,51.59
2023-02-11T17:34:32.358Z,51.34
2023-02-11T17:36:34.141Z,51.27
2023-02-11T17:38:37.252Z,51.45
2023-02-11T17:40:38.864Z,51.37
2023-02-11T17:42:40.501Z,51.78
2023-02-11T17:44:43.929Z,51.67
2023-02-11T17:46:45.748Z,51.63
2023-02-11T17:48:47.353Z,51.37
2023-02-11T17:50:49.230Z,51.39
2023-02-11T17:52:50.846Z,51.42
2023-02-11T17:54:52.617Z,51.45
2023-02-11T17:56:57.766Z,51.72
2023-02-11T17:59:02.268Z,51.55
2023-02-11T18:01:04.215Z,51.92
2023-02-11T18:03:05.777Z,51.54
2023-02-11T18:05:10.731Z,51.83
2023-02-11T18:07:12.424Z,52.00
2023-02-11T18:09:14.092Z,51.75
2023-02-11T18:11:16.464Z,51.46
2023-02-11T18:13:18.319Z,51.35
2023-02-11T18:15:20.103Z,51.76
2023-02-11T18:17:25.148Z,51.54
2023-02-11T18:19:30.550Z,51.37
2023-02-11T18:21:33.411Z,51.76
2023-02-11T18:23:35.417Z,51.64
2023-02-11T18:25:37.669Z,51.76
2023-02-11T18:27:39.497Z,51.87
2023-02-11T18:29:44.051Z,51.87
2023-02-11T18:31:45.727Z,51.98
2023-02-11T18:33:48.005Z,51.71
2023-02-11T18:35:52.840Z,52.06
2023-02-11T18:37:54.469Z,52.03
2023-02-11T18:39:56.153Z,51.98
2023-02-11T18:41:58.994Z,51.95
2023-02-11T18:44:02.875Z,51.82
2023-02-11T18:46:12.738Z,51.90
2023-02-11T18:48:21.917Z,52.05
2023-02-11T18:50:23.707Z,51.90
2023-02-11T18:52:25.343Z,52.21
2023-02-11T18:54:27.116Z,52.09
2023-02-11T18:56:28.924Z,52.01
2023-02-11T18:58:30.518Z,51.99
2023-02-11T19:00:32.366Z,52.04
2023-02-11T19:02:34.054Z,51.92
2023-02-11T19:04:38.529Z,52.19
2023-02-11T19:06:40.370Z,51.89
2023-02-11T19:08:42.361Z,52.04
2023-02-11T19:10:46.772Z,51.88
2023-02-11T19:12:48.590Z,52.00
2023-02-11T19:14:50.076Z,52.29
2023-02-11T19:16:54.802Z,52.30
2023-02-11T19:18:56.815Z,52.13
2023-02-11T19:21:01.856Z,52.28
2023-02-11T19:23:06.452Z,52.03
2023-02-11T19:25:08.247Z,52.39
2023-02-11T19:27:14.355Z,52.28
2023-02-11T19:29:16.832Z,52.51
2023-02-11T19:31:18.739Z,52.35
2023-02-11T19:33:20.462Z,52.09
2023-02-11T19:35:23.239Z,52.23
2023-02-11T19:37:24.976Z,52.39
2023-02-11T19:39:27.042Z,51.96
2023-02-11T19:41:29.638Z,52.12
2023-02-11T19:43:31.303Z,52.53
2023-02-11T19:45:33.092Z,52.34
2023-02-11T19:47:35.103Z,52.38
2023-02-11T19:49:36.833Z,52.51
2023-02-11T19:51:39.680Z,52.27
2023-02-11T19:53:42.346Z,52.25
2023-02-11T19:55:44.291Z,52.48
2023-02-11T19:57:45.856Z,52.43
2023-02-11T19:59:47.411Z,52.44
2023-02-11T20:01:49.255Z,52.20
2023-02-11T20:03:55.310Z,52.56
2023-02-11T20:05:57.082Z,52.52
2023-02-11T20:07:58.801Z,52.32
2023-02-11T20:10:00.561Z,52.58
2023-02-11T20:12:02.143Z,52.61
2023-02-11T20:14:05.118Z,52.56
2023-02-11T20:16:13.237Z,52.46
2023-02-11T20:18:14.915Z,52.56
2023-02-11T20:20:18.567Z,52.60
2023-02-11T20:22:20.185Z,52.79
2023-02-11T20:24:23.107Z,52.65
2023-02-11T20:26:31.016Z,52.58
2023-02-11T20:28:32.991Z,52.45
2023-02-11T20:30:34.648Z,52.30
2023-02-11T20:32:38.587Z,52.47
2023-02-11T20:34:40.382Z,52.81
2023-02-11T20:36:42.089Z,52.54
2023-02-11T20:38:44.712Z,52.78
2023-02-11T20:40:47.659Z,52.60
2023-02-11T20:42:49.900Z,52.79
2023-02-11T20:44:51.678Z,52.76
2023-02-11T20:46:54.338Z,52.77
2023-02-11T20:48:57.551Z,52.99
2023-02-11T20:51:06.716Z,53.14
2023-02-11T20:53:10.254Z,52.84
2023-02-11T20:55:14.646Z,52.71
2023-02-11T20:57:17.486Z,52.66
2023-02-11T20:59:21.207Z,52.72
2023-02-11T21:01:27.501Z,52.47
2023-02-11T21:03:29.371Z,52.83
2023-02-11T21:05:31.274Z,52.64
2023-02-11T21:07:33.094Z,52.65
2023-02-11T21:09:34.754Z,52.95
2023-02-11T21:11:39.583Z,52.88
2023-02-11T21:13:42.842Z,52.74
2023-02-11T21:15:44.459Z,52.93
2023-02-11T21:17:46.331Z,52.90
2023-02-11T21:19:47.878Z,53.07
2023-02-11T21:21:49.799Z,52.81
2023-02-11T21:23:51.269Z,52.70
2023-02-11T21:25:54.114Z,52.97
2023-02-11T21:27:56.058Z,52.92
2023-02-11T21:30:00.229Z,52.77
2023-02-11T21:32:01.971Z,52.83
2023-02-11T21:34:04.124Z,52.94
2023-02-11T21:36:07.934Z,52.75
2023-02-11T21:38:09.932Z,52.71
2023-02-11T21:40:11.787Z,52.92
2023-02-11T21:42:13.375Z,53.07
2023-02-11T21:44:14.944Z,52.83
2023-02-11T21:46:19.064Z,53.20
2023-02-11T21:48:21.033Z,52.98
2023-02-11T21:50:23.897Z,53.17
2023-02-11T21:52:25.655Z,53.08
2023-02-11T21:54:31.951Z,53.23
2023-02-11T21:56:36.734Z,52.97
2023-02-11T21:58:38.893Z,53.11
2023-02-11T22:00:40.555Z,52.87
2023-02-11T22:02:42.456Z,52.78
2023-02-11T22:04:44.133Z,53.30
2023-02-11T22:06:48.116Z,53.22
2023-02-11T22:08:50.263Z,53.27
2023-02-11T22:10:52.142Z,52.98
2023-02-11T22:12:53.829Z,53.19
2023-02-11T22:14:55.826Z,52.93
2023-02-11T22:16:57.495Z,52.89
2023-02-11T22:18:59.658Z,52.91
2023-02-11T22:21:10.511Z,53.00
2023-02-11T22:23:12.153Z,53.27
2023-02-11T22:25:13.812Z,53.01
2023-02-11T22:27:19.880Z,53.16
2023-02-11T22:29:21.774Z,52.95
2023-02-11T22:31:29.810Z,53.19
2023-02-11T22:33:31.548Z,52.86
2023-02-11T22:35:34.618Z,53.07
2023-02-11T22:37:42.294Z,53.06
2023-02-11T22:39:43.840Z,53.00
2023-02-11T22:41:46.858Z,53.55
2023-02-11T22:43:48.532Z,53.58
2023-02-11T22:45:50.791Z,53.43
2023-02-11T22:47:54.189Z,53.27
2023-02-11T22:49:55.872Z,52.84
2023-02-11T22:51:57.486Z,53.13
2023-02-11T22:54:04.956Z,53.35
2023-02-11T22:56:09.865Z,53.16
2023-02-11T22:58:11.518Z,52.95
2023-02-11T23:00:13.818Z,53.13
2023-02-11T23:02:15.647Z,52.96
2023-02-11T23:04:19.453Z,53.04
2023-02-11T23:06:21.245Z,53.17
2023-02-11T23:08:23.100Z,53.20
2023-02-11T23:10:24.720Z,53.14
2023-02-11T23:12:26.976Z,53.00
2023-02-11T23:14:28.658Z,53.07
2023-02-11T23:16:33.422Z,53.04
2023-02-11T23:18:37.127Z,53.21
2023-02-11T23:20:42.258Z,53.17
2023-02-11T23:22:44.036Z,52.95
2023-02-11T23:24:45.858Z,53.13
2023-02-11T23:26:47.425Z,53.50
2023-02-11T23:28:49.540Z,53.46
2023-02-11T23:30:54.756Z,53.52
2023-02-11T23:32:56.335Z,53.35
2023-02-11T23:34:58.281Z,53.37
2023-02-11T23:36:59.848Z,53.35
2023-02-11T23:39:01.554Z,53.56
2023-02-11T23:41:06.247Z,53.31
2023-02-11T23:43:07.790Z,53.54
2023-02-11T23:45:09.873Z,53.47
2023-02-11T23:47:11.523Z,53.14
2023-02-11T23:49:15.592Z,53.51
2023-02-11T23:51:17.462Z,53.77
2023-02-11T23:53:19.101Z,53.34
2023-02-11T23:55:20.723Z,53.31
2023-02-11T23:57:22.211Z,53.25
2023-02-11T23:59:23.802Z,53.34
